createdAt,value
2022-11-06T00:00:09.195Z,5.31
2022-11-06T00:02:37.008Z,5.22
2022-11-06T00:05:19.480Z,5.44
2022-11-06T00:07:47.363Z,5.31
2022-11-06T00:10:16.198Z,5.31
2022-11-06T00:12:44.572Z,5.25
2022-11-06T00:15:13.773Z,5.13
2022-11-06T00:17:41.727Z,5.22
2022-11-06T00:20:10.538Z,5.34
2022-11-06T00:22:39.409Z,5.13
2022-11-06T00:25:08.168Z,5.14
2022-11-06T00:27:37.106Z,5.22
2022-11-06T00:30:05.718Z,5.12
2022-11-06T00:32:34.852Z,5.15
2022-11-06T00:35:02.708Z,5.03
2022-11-06T00:37:30.515Z,5.09
2022-11-06T00:39:59.424Z,4.99
2022-11-06T00:42:27.296Z,5.05
2022-11-06T00:44:55.135Z,5.27
2022-11-06T00:47:22.901Z,5.31
2022-11-06T00:49:52.061Z,5.10
2022-11-06T00:52:19.855Z,5.27
2022-11-06T00:54:47.711Z,5.26
2022-11-06T00:57:15.511Z,5.32
2022-11-06T00:59:43.275Z,5.08
2022-11-06T01:02:11.147Z,4.96
2022-11-06T01:04:38.969Z,5.13
2022-11-06T01:07:08.174Z,5.25
2022-11-06T01:09:35.947Z,5.10
2022-11-06T01:12:13.450Z,5.11
2022-11-06T01:14:42.625Z,4.94
2022-11-06T01:17:10.626Z,4.93
2022-11-06T01:19:38.601Z,4.97
2022-11-06T01:22:07.724Z,4.98
2022-11-06T01:24:35.934Z,5.08
2022-11-06T01:29:51.728Z,5.05
2022-11-06T01:32:19.545Z,5.02
2022-11-06T01:34:47.731Z,4.98
2022-11-06T01:37:16.850Z,4.88
2022-11-06T01:39:44.839Z,5.02
2022-11-06T01:42:14.032Z,5.04
2022-11-06T01:45:09.273Z,4.91
2022-11-06T01:47:37.393Z,5.06
2022-11-06T01:50:09.457Z,4.78
2022-11-06T01:52:39.454Z,4.85
2022-11-06T01:55:11.398Z,4.83
2022-11-06T01:57:40.092Z,5.00
2022-11-06T02:00:09.455Z,4.92
2022-11-06T02:02:38.723Z,5.10
2022-11-06T02:05:07.390Z,5.03
2022-11-06T02:07:35.869Z,4.99
2022-11-06T02:10:06.014Z,4.84
2022-11-06T02:12:45.467Z,4.94
2022-11-06T02:15:19.899Z,5.05
2022-11-06T02:18:02.220Z,4.91
2022-11-06T02:20:55.746Z,5.00
2022-11-06T02:23:37.793Z,4.89
2022-11-06T02:26:24.177Z,4.87
2022-11-06T02:28:58.472Z,4.91
2022-11-06T02:31:29.495Z,4.97
2022-11-06T02:34:02.269Z,4.86
2022-11-06T02:36:35.735Z,4.87
2022-11-06T02:39:08.799Z,4.94
2022-11-06T02:41:40.438Z,4.98
2022-11-06T02:44:13.106Z,4.91
2022-11-06T02:46:44.719Z,4.84
2022-11-06T02:49:16.453Z,4.97
2022-11-06T02:51:49.155Z,5.04
2022-11-06T02:54:21.156Z,4.87
2022-11-06T02:56:52.530Z,4.83
2022-11-06T02:59:24.607Z,5.03
2022-11-06T03:01:57.253Z,5.02
2022-11-06T03:04:31.557Z,5.01
2022-11-06T03:07:06.306Z,5.00
2022-11-06T03:09:34.805Z,5.02
2022-11-06T03:12:14.551Z,5.11
2022-11-06T03:14:51.947Z,5.03
2022-11-06T03:17:25.155Z,4.90
2022-11-06T03:19:56.797Z,5.04
2022-11-06T03:22:29.504Z,5.13
2022-11-06T03:25:04.851Z,5.14
2022-11-06T03:27:35.964Z,4.86
2022-11-06T03:30:12.547Z,5.00
2022-11-06T03:32:48.876Z,4.86
2022-11-06T03:35:24.104Z,4.73
2022-11-06T03:37:59.054Z,4.84
2022-11-06T03:40:30.802Z,4.89
2022-11-06T03:43:02.783Z,4.71
2022-11-06T03:45:34.592Z,4.82
2022-11-06T03:48:08.217Z,4.76
2022-11-06T03:50:39.126Z,4.74
2022-11-06T03:53:12.544Z,4.86
2022-11-06T03:55:48.925Z,4.82
2022-11-06T03:58:21.809Z,4.73
2022-11-06T04:00:54.021Z,4.82
2022-11-06T04:03:26.875Z,4.68
2022-11-06T04:05:57.484Z,4.86
2022-11-06T04:08:46.772Z,4.89
2022-11-06T04:11:37.170Z,4.70
2022-11-06T04:14:07.204Z,4.79
2022-11-06T04:16:40.756Z,4.75
2022-11-06T04:19:15.676Z,4.86
2022-11-06T04:22:01.749Z,4.79
2022-11-06T04:24:56.014Z,4.53
2022-11-06T04:27:32.633Z,4.60
2022-11-06T04:30:06.514Z,4.72
2022-11-06T04:33:06.673Z,4.77
2022-11-06T04:35:52.556Z,4.68
2022-11-06T04:38:27.961Z,4.73
2022-11-06T04:41:03.405Z,4.66
2022-11-06T04:43:41.014Z,4.54
2022-11-06T04:46:11.974Z,4.51
2022-11-06T04:48:42.417Z,4.65
2022-11-06T04:51:12.229Z,4.61
2022-11-06T04:53:41.632Z,4.49
2022-11-06T04:56:12.607Z,4.56
2022-11-06T04:58:40.576Z,4.63
2022-11-06T05:01:09.462Z,4.65
2022-11-06T05:03:38.300Z,4.61
2022-11-06T05:06:07.920Z,4.48
2022-11-06T05:08:35.922Z,4.49
2022-11-06T05:11:03.788Z,4.50
2022-11-06T05:13:31.563Z,4.41
2022-11-06T05:16:00.321Z,4.51
2022-11-06T05:18:29.048Z,4.51
2022-11-06T05:21:14.432Z,4.45
2022-11-06T05:23:43.526Z,4.49
2022-11-06T05:26:11.571Z,4.45
2022-11-06T05:28:39.340Z,4.47
2022-11-06T05:31:07.255Z,4.44
2022-11-06T05:33:34.995Z,4.31
2022-11-06T05:36:03.262Z,4.35
2022-11-06T05:38:31.088Z,4.39
2022-11-06T05:41:00.502Z,4.47
2022-11-06T05:43:28.228Z,4.43
2022-11-06T05:45:56.160Z,4.39
2022-11-06T05:48:23.948Z,4.36
2022-11-06T05:50:51.694Z,4.30
2022-11-06T05:53:19.660Z,4.33
2022-11-06T05:55:47.989Z,4.19
2022-11-06T05:58:17.086Z,4.17
2022-11-06T06:00:44.844Z,4.40
2022-11-06T06:03:13.174Z,4.19
2022-11-06T06:05:41.057Z,4.18
2022-11-06T06:08:08.813Z,4.26
2022-11-06T06:10:36.569Z,4.04
2022-11-06T06:13:04.402Z,4.19
2022-11-06T06:15:33.511Z,4.00
2022-11-06T06:18:01.548Z,3.92
2022-11-06T06:20:29.299Z,4.13
2022-11-06T06:22:57.581Z,4.10
2022-11-06T06:25:25.892Z,4.02
2022-11-06T06:27:54.268Z,4.08
2022-11-06T06:30:22.982Z,4.09
2022-11-06T06:32:52.616Z,4.10
2022-11-06T06:35:20.459Z,4.19
2022-11-06T06:37:53.636Z,4.28
2022-11-06T06:40:23.142Z,4.62
2022-11-06T06:42:51.333Z,4.37
2022-11-06T06:45:19.102Z,4.65
2022-11-06T06:47:46.870Z,4.38
2022-11-06T06:50:16.017Z,4.41
2022-11-06T06:52:43.807Z,4.44
2022-11-06T06:55:11.655Z,4.41
2022-11-06T06:57:39.399Z,4.52
2022-11-06T07:00:08.553Z,4.44
2022-11-06T07:02:36.326Z,4.57
2022-11-06T07:05:04.299Z,4.63
2022-11-06T07:07:34.286Z,4.56
2022-11-06T07:10:05.324Z,4.70
2022-11-06T07:12:33.145Z,5.07
2022-11-06T07:15:00.966Z,4.93
2022-11-06T07:17:29.253Z,4.89
2022-11-06T07:19:57.063Z,5.00
2022-11-06T07:22:33.797Z,4.96
2022-11-06T07:25:07.017Z,5.09
2022-11-06T07:27:34.832Z,5.65
2022-11-06T07:30:02.650Z,5.34
2022-11-06T07:32:31.187Z,5.36
2022-11-06T07:34:59.043Z,5.18
2022-11-06T07:37:29.233Z,5.18
2022-11-06T07:39:56.985Z,5.30
2022-11-06T07:42:26.136Z,5.34
2022-11-06T07:45:01.826Z,5.41
2022-11-06T07:47:31.600Z,5.41
2022-11-06T07:50:00.073Z,5.47
2022-11-06T07:52:27.940Z,5.53
2022-11-06T07:54:55.745Z,5.57
2022-11-06T07:57:23.705Z,5.61
2022-11-06T07:59:52.847Z,5.66
2022-11-06T08:02:21.000Z,5.85
2022-11-06T08:04:48.881Z,5.87
2022-11-06T08:07:16.633Z,5.90
2022-11-06T08:09:44.433Z,5.95
2022-11-06T08:12:14.455Z,6.04
2022-11-06T08:14:42.226Z,6.13
2022-11-06T08:17:11.413Z,6.26
2022-11-06T08:19:39.323Z,6.30
2022-11-06T08:22:07.108Z,6.33
2022-11-06T08:24:34.910Z,6.37
2022-11-06T08:27:03.228Z,6.51
2022-11-06T08:29:31.044Z,6.57
2022-11-06T08:31:58.840Z,6.55
2022-11-06T08:34:28.035Z,6.67
2022-11-06T08:36:55.853Z,6.74
2022-11-06T08:39:23.601Z,6.71
2022-11-06T08:41:51.354Z,6.83
2022-11-06T08:44:19.129Z,6.85
2022-11-06T08:46:52.051Z,6.97
2022-11-06T08:49:20.511Z,7.06
2022-11-06T08:51:49.970Z,7.14
2022-11-06T08:54:17.770Z,7.19
2022-11-06T08:56:45.626Z,7.27
2022-11-06T08:59:13.581Z,7.13
2022-11-06T09:01:41.584Z,7.29
2022-11-06T09:04:09.503Z,7.36
2022-11-06T09:06:37.382Z,7.45
2022-11-06T09:09:06.669Z,7.51
2022-11-06T09:11:34.597Z,7.53
2022-11-06T09:14:02.465Z,7.55
2022-11-06T09:16:36.805Z,7.65
2022-11-06T09:19:04.851Z,7.80
2022-11-06T09:21:32.677Z,7.82
2022-11-06T09:24:00.612Z,7.93
2022-11-06T09:26:29.775Z,8.03
2022-11-06T09:28:57.650Z,8.03
2022-11-06T09:31:25.533Z,8.09
2022-11-06T09:33:54.182Z,8.23
2022-11-06T09:36:21.951Z,8.28
2022-11-06T09:38:49.939Z,8.41
2022-11-06T09:41:24.810Z,8.44
2022-11-06T09:44:08.046Z,8.51
2022-11-06T09:46:40.349Z,8.53
2022-11-06T09:49:17.534Z,8.61
2022-11-06T09:51:49.916Z,8.62
2022-11-06T09:54:22.901Z,8.68
2022-11-06T09:56:55.808Z,8.74
2022-11-06T09:59:25.818Z,8.72
2022-11-06T10:01:56.817Z,8.72
2022-11-06T10:04:41.267Z,8.64
2022-11-06T10:07:20.186Z,8.83
2022-11-06T10:09:48.046Z,8.90
2022-11-06T10:12:25.602Z,9.04
2022-11-06T10:15:05.049Z,8.97
2022-11-06T10:17:45.670Z,8.93
2022-11-06T10:20:25.470Z,8.96
2022-11-06T10:23:04.679Z,8.88
2022-11-06T10:25:45.286Z,8.98
2022-11-06T10:28:29.941Z,9.06
2022-11-06T10:31:08.083Z,9.14
2022-11-06T10:33:49.773Z,9.07
2022-11-06T10:36:20.995Z,9.00
2022-11-06T10:38:53.331Z,9.29
2022-11-06T10:41:24.290Z,9.40
2022-11-06T10:43:56.240Z,9.38
2022-11-06T10:46:31.287Z,9.31
2022-11-06T10:49:01.680Z,9.55
2022-11-06T10:51:43.066Z,9.68
2022-11-06T10:54:27.924Z,10.04
2022-11-06T10:57:17.294Z,10.26
2022-11-06T10:59:49.492Z,10.99
2022-11-06T11:02:27.558Z,11.42
2022-11-06T11:04:58.146Z,12.05
2022-11-06T11:07:29.973Z,12.69
2022-11-06T11:09:57.871Z,13.63
2022-11-06T11:12:28.766Z,13.69
2022-11-06T11:15:12.996Z,14.18
2022-11-06T11:17:43.541Z,14.44
2022-11-06T11:20:33.235Z,13.95
2022-11-06T11:23:14.178Z,14.40
2022-11-06T11:25:45.100Z,13.55
2022-11-06T11:28:27.701Z,11.69
2022-11-06T11:31:03.943Z,10.71
2022-11-06T11:33:33.847Z,10.62
2022-11-06T11:36:03.237Z,10.62
2022-11-06T11:38:33.208Z,10.70
2022-11-06T11:41:08.783Z,10.63
2022-11-06T11:43:36.722Z,10.75
2022-11-06T11:46:20.722Z,10.96
2022-11-06T11:48:52.275Z,11.05
2022-11-06T11:51:29.981Z,11.26
2022-11-06T11:54:01.134Z,11.26
2022-11-06T11:57:02.366Z,11.55
2022-11-06T11:59:22.680Z,11.71
2022-11-06T12:01:51.182Z,12.03
2022-11-06T12:04:25.559Z,12.54
2022-11-06T12:07:01.122Z,12.15
2022-11-06T12:09:30.956Z,12.10
2022-11-06T12:12:02.631Z,13.88
2022-11-06T12:14:36.386Z,15.26
2022-11-06T12:17:15.513Z,16.08
2022-11-06T12:19:50.898Z,15.07
2022-11-06T12:22:27.817Z,16.14
2022-11-06T12:25:01.177Z,16.31
2022-11-06T12:27:34.162Z,16.44
2022-11-06T12:30:07.473Z,18.02
2022-11-06T12:32:49.823Z,17.54
2022-11-06T12:35:27.587Z,19.13
2022-11-06T12:38:07.004Z,18.07
2022-11-06T12:40:40.343Z,18.12
2022-11-06T12:43:20.752Z,17.91
2022-11-06T12:45:59.229Z,17.80
2022-11-06T12:48:42.742Z,19.09
2022-11-06T12:51:18.352Z,17.50
2022-11-06T12:53:58.781Z,16.65
2022-11-06T12:56:36.418Z,15.77
2022-11-06T12:59:18.816Z,14.86
2022-11-06T13:01:59.253Z,14.03
2022-11-06T13:04:37.657Z,13.67
2022-11-06T13:07:34.991Z,13.13
2022-11-06T13:10:25.266Z,13.10
2022-11-06T13:13:09.169Z,12.83
2022-11-06T13:15:49.491Z,12.81
2022-11-06T13:18:24.664Z,12.46
2022-11-06T13:20:57.337Z,12.56
2022-11-06T13:23:30.630Z,12.81
2022-11-06T13:26:07.682Z,12.69
2022-11-06T13:28:40.906Z,12.45
2022-11-06T13:31:12.128Z,12.57
2022-11-06T13:33:45.029Z,12.70
2022-11-06T13:36:13.560Z,12.38
2022-11-06T13:39:10.557Z,12.45
2022-11-06T13:41:41.367Z,12.37
2022-11-06T13:44:17.759Z,12.23
2022-11-06T13:46:57.004Z,12.57
2022-11-06T13:49:35.419Z,12.52
2022-11-06T13:52:13.041Z,12.30
2022-11-06T13:55:01.377Z,12.44
2022-11-06T13:57:56.889Z,12.10
2022-11-06T14:00:26.701Z,12.12
2022-11-06T14:03:19.647Z,12.30
2022-11-06T14:05:57.467Z,12.13
2022-11-06T14:08:43.623Z,12.20
2022-11-06T14:11:21.677Z,12.06
2022-11-06T14:14:02.056Z,12.22
2022-11-06T14:16:37.344Z,12.01
2022-11-06T14:19:18.873Z,12.12
2022-11-06T14:21:49.549Z,11.93
2022-11-06T14:24:40.075Z,11.90
2022-11-06T14:27:16.989Z,11.82
2022-11-06T14:30:03.296Z,11.97
2022-11-06T14:32:52.721Z,11.70
2022-11-06T14:35:56.435Z,11.97
2022-11-06T14:38:52.453Z,11.82
2022-11-06T14:41:58.194Z,11.50
2022-11-06T14:44:36.171Z,11.76
2022-11-06T14:47:15.572Z,11.65
2022-11-06T14:49:49.822Z,11.48
2022-11-06T14:52:19.406Z,11.48
2022-11-06T14:54:54.872Z,11.46
2022-11-06T14:57:39.337Z,11.35
2022-11-06T15:00:15.066Z,11.31
2022-11-06T15:03:16.873Z,11.23
2022-11-06T15:05:49.579Z,11.21
2022-11-06T15:08:54.945Z,11.31
2022-11-06T15:12:10.504Z,11.00
2022-11-06T15:14:59.206Z,10.99
2022-11-06T15:17:35.476Z,10.88
2022-11-06T15:20:24.470Z,10.92
2022-11-06T15:23:14.549Z,10.70
2022-11-06T15:25:51.278Z,10.83
2022-11-06T15:28:26.678Z,10.62
2022-11-06T15:31:01.298Z,10.44
2022-11-06T15:33:33.975Z,10.30
2022-11-06T15:36:06.315Z,10.33
2022-11-06T15:38:42.257Z,10.26
2022-11-06T15:41:16.077Z,10.34
2022-11-06T15:43:54.018Z,10.37
2022-11-06T15:46:25.400Z,10.29
2022-11-06T15:49:18.449Z,9.97
2022-11-06T15:51:56.026Z,9.97
2022-11-06T15:54:36.039Z,9.94
2022-11-06T15:57:07.360Z,9.78
2022-11-06T15:59:35.412Z,9.61
2022-11-06T16:02:06.110Z,9.72
2022-11-06T16:04:36.890Z,9.67
2022-11-06T16:07:05.864Z,9.46
2022-11-06T16:09:36.224Z,9.44
2022-11-06T16:12:07.122Z,9.39
2022-11-06T16:14:39.880Z,9.28
2022-11-06T16:17:12.912Z,9.27
2022-11-06T16:19:46.799Z,9.12
2022-11-06T16:22:17.856Z,9.00
2022-11-06T16:24:49.672Z,8.90
2022-11-06T16:27:18.371Z,8.88
2022-11-06T16:29:49.177Z,8.92
2022-11-06T16:32:19.812Z,8.86
2022-11-06T16:34:49.898Z,8.75
2022-11-06T16:37:45.146Z,8.75
2022-11-06T16:40:49.119Z,8.62
2022-11-06T16:43:19.129Z,8.54
2022-11-06T16:45:56.064Z,8.45
2022-11-06T16:48:35.537Z,8.48
2022-11-06T16:51:09.788Z,8.37
2022-11-06T16:53:56.321Z,8.31
2022-11-06T16:56:29.862Z,8.29
2022-11-06T16:59:08.008Z,8.24
2022-11-06T17:01:41.514Z,8.18
2022-11-06T17:04:20.313Z,8.29
2022-11-06T17:06:50.266Z,8.19
2022-11-06T17:09:32.817Z,8.25
2022-11-06T17:12:02.991Z,8.24
2022-11-06T17:14:32.886Z,8.33
2022-11-06T17:17:05.584Z,8.49
2022-11-06T17:19:33.551Z,8.26
2022-11-06T17:22:02.910Z,8.26
2022-11-06T17:24:36.547Z,8.13
2022-11-06T17:27:12.931Z,8.16
2022-11-06T17:29:42.888Z,8.10
2022-11-06T17:32:11.119Z,8.15
2022-11-06T17:34:47.140Z,8.13
2022-11-06T17:37:18.691Z,8.14
2022-11-06T17:39:47.168Z,8.02
2022-11-06T17:42:16.161Z,7.99
2022-11-06T17:44:48.443Z,8.08
2022-11-06T17:47:27.454Z,7.97
2022-11-06T17:50:15.758Z,7.99
2022-11-06T17:52:47.017Z,8.02
2022-11-06T17:55:17.463Z,8.56
2022-11-06T17:57:53.680Z,8.00
2022-11-06T18:00:23.681Z,7.93
2022-11-06T18:03:01.571Z,7.86
2022-11-06T18:05:30.143Z,7.89
2022-11-06T18:08:06.898Z,7.80
2022-11-06T18:10:34.977Z,7.79
2022-11-06T18:13:03.325Z,7.77
2022-11-06T18:15:34.163Z,7.71
2022-11-06T18:18:05.311Z,7.75
2022-11-06T18:20:35.520Z,7.84
2022-11-06T18:23:04.809Z,7.87
2022-11-06T18:25:36.097Z,7.96
2022-11-06T18:28:15.800Z,7.84
2022-11-06T18:30:50.281Z,7.80
2022-11-06T18:33:22.527Z,7.85
2022-11-06T18:35:50.389Z,7.82
2022-11-06T18:38:22.454Z,7.86
2022-11-06T18:40:52.646Z,7.93
2022-11-06T18:43:23.341Z,7.86
2022-11-06T18:45:53.020Z,7.82
2022-11-06T18:48:22.694Z,7.84
2022-11-06T18:50:52.823Z,7.89
2022-11-06T18:53:22.689Z,7.99
2022-11-06T18:55:50.596Z,7.93
2022-11-06T18:58:21.027Z,7.79
2022-11-06T19:00:50.039Z,7.74
2022-11-06T19:03:19.229Z,7.65
2022-11-06T19:05:48.660Z,7.71
2022-11-06T19:08:22.091Z,7.64
2022-11-06T19:10:51.317Z,7.80
2022-11-06T19:13:19.358Z,7.54
2022-11-06T19:15:51.204Z,7.65
2022-11-06T19:18:34.813Z,7.85
2022-11-06T19:21:05.774Z,7.77
2022-11-06T19:23:33.718Z,7.65
2022-11-06T19:26:32.619Z,7.64
2022-11-06T19:29:00.425Z,7.56
2022-11-06T19:31:30.002Z,7.64
2022-11-06T19:33:59.100Z,7.56
2022-11-06T19:36:32.979Z,7.58
2022-11-06T19:39:04.673Z,7.39
2022-11-06T19:41:36.093Z,7.50
2022-11-06T19:44:12.455Z,7.56
2022-11-06T19:46:42.419Z,7.35
2022-11-06T19:49:12.336Z,7.41
2022-11-06T19:51:45.223Z,7.42
2022-11-06T19:54:13.711Z,7.50
2022-11-06T19:57:27.322Z,7.50
2022-11-06T19:59:40.635Z,7.47
2022-11-06T20:02:11.938Z,7.37
2022-11-06T20:04:39.994Z,7.37
2022-11-06T20:07:11.132Z,7.35
2022-11-06T20:09:41.013Z,7.22
2022-11-06T20:12:10.519Z,7.23
2022-11-06T20:14:40.555Z,7.37
2022-11-06T20:17:08.593Z,7.39
2022-11-06T20:19:36.455Z,7.51
2022-11-06T20:22:07.044Z,7.47
2022-11-06T20:24:40.669Z,7.39
2022-11-06T20:27:11.660Z,7.31
2022-11-06T20:29:39.657Z,7.28
2022-11-06T20:32:18.606Z,7.47
2022-11-06T20:34:48.100Z,7.42
2022-11-06T20:37:16.086Z,7.29
2022-11-06T20:39:43.962Z,7.39
2022-11-06T20:42:14.317Z,7.46
2022-11-06T20:44:42.223Z,7.36
2022-11-06T20:47:18.126Z,7.19
2022-11-06T20:49:49.304Z,7.23
2022-11-06T20:52:17.452Z,7.08
2022-11-06T20:54:48.533Z,7.23
2022-11-06T20:57:20.005Z,7.08
2022-11-06T20:59:51.282Z,7.01
2022-11-06T21:02:19.485Z,7.13
2022-11-06T21:04:49.039Z,7.07
2022-11-06T21:07:19.087Z,7.01
2022-11-06T21:09:47.150Z,7.05
2022-11-06T21:12:22.222Z,6.96
2022-11-06T21:14:52.058Z,7.06
2022-11-06T21:17:24.204Z,6.98
2022-11-06T21:19:55.090Z,7.03
2022-11-06T21:22:22.934Z,7.02
2022-11-06T21:24:50.844Z,6.98
2022-11-06T21:27:23.270Z,6.84
2022-11-06T21:29:51.174Z,6.93
2022-11-06T21:32:20.966Z,6.95
2022-11-06T21:34:50.815Z,6.94
2022-11-06T21:37:18.992Z,6.88
2022-11-06T21:39:48.849Z,6.95
2022-11-06T21:42:18.602Z,6.94
2022-11-06T21:44:48.251Z,6.81
2022-11-06T21:47:18.027Z,6.92
2022-11-06T21:49:53.782Z,6.80
2022-11-06T21:52:41.655Z,6.79
2022-11-06T21:55:32.504Z,6.88
2022-11-06T21:58:02.921Z,6.91
2022-11-06T22:00:32.353Z,6.85
2022-11-06T22:03:00.236Z,6.85
2022-11-06T22:05:33.197Z,6.84
2022-11-06T22:08:05.572Z,6.85
2022-11-06T22:10:36.210Z,7.05
2022-11-06T22:13:06.203Z,6.90
2022-11-06T22:15:37.911Z,7.03
2022-11-06T22:18:07.518Z,7.07
2022-11-06T22:20:35.358Z,7.10
2022-11-06T22:23:03.251Z,7.04
2022-11-06T22:25:34.374Z,7.18
2022-11-06T22:28:02.174Z,6.98
2022-11-06T22:30:33.075Z,6.93
2022-11-06T22:33:05.355Z,6.92
2022-11-06T22:35:35.269Z,6.98
2022-11-06T22:38:05.222Z,6.86
2022-11-06T22:40:33.053Z,6.85
2022-11-06T22:43:00.973Z,6.85
2022-11-06T22:45:30.947Z,6.87
2022-11-06T22:47:59.221Z,6.98
2022-11-06T22:50:28.617Z,6.87
2022-11-06T22:52:57.663Z,6.80
2022-11-06T22:55:30.075Z,7.04
2022-11-06T22:58:00.128Z,6.97
2022-11-06T23:00:31.395Z,6.93
2022-11-06T23:03:02.817Z,7.01
2022-11-06T23:05:36.640Z,6.85
2022-11-06T23:08:07.120Z,6.91
2022-11-06T23:10:38.764Z,6.95
2022-11-06T23:13:07.667Z,6.84
2022-11-06T23:15:36.303Z,7.07
2022-11-06T23:18:05.329Z,7.00
2022-11-06T23:20:34.939Z,7.06
2022-11-06T23:23:03.623Z,6.99
2022-11-06T23:25:33.280Z,7.04
2022-11-06T23:28:01.920Z,7.03
2022-11-06T23:30:30.934Z,7.15
2022-11-06T23:32:58.895Z,6.98
2022-11-06T23:35:32.092Z,7.07
2022-11-06T23:38:01.993Z,7.11
2022-11-06T23:40:29.910Z,7.14
2022-11-06T23:42:57.766Z,7.34
2022-11-06T23:45:43.187Z,7.17
2022-11-06T23:48:14.609Z,7.07
2022-11-06T23:50:46.816Z,7.23
2022-11-06T23:53:17.633Z,6.96
2022-11-06T23:55:45.682Z,7.07
2022-11-06T23:58:13.512Z,7.24
